Altamont, SD

1:28 PM CDT on July 28, 2014 (GMT -0500)
Canby (KCNB) Elev 1194 ft | 44.73 °N, 96.26 °W | Change Station

Current weather conditions updated 14 minutes ago

Overcast
Overcast
70 °F
Feels Like 70 °F
N
7
Wind Variable Wind from North

Today is forecast to be nearly the same temperature as yesterday.

Today
High -- | Low -- °F
--% Chance of Precip.
Yesterday
High -- | Low -- °F
Precip. -- in
6:08 AM 8:57 PM
Waxing Crescent, 3% visible
Pressure 30.26 in
Visibility 10.0 miles
Clouds Scattered Clouds 3900 ft
Mostly Cloudy 5000 ft
Overcast 6500 ft
Dew Point 54 °F
Humidity 55%
Rainfall 0.00 in
Snow Depth Not available.
UV 3 out of 12
Pollen 6.40 out of 12
Air Quality Not available.
Flu Activity Not available.
METAR KCNB 281814Z AUTO 35006KT 10SM SCT039 BKN050 OVC065 21/12 A3026 RMK AO2 T02140120

More Conditions Fewer Conditions

Pressure 30.26 in
Visibility 10.0 miles
Clouds Scattered Clouds 3900 ft
Mostly Cloudy 5000 ft
Overcast 6500 ft
Dew Point 54 °F
Humidity 55%
Rainfall 0.00 in
Snow Depth Not available.
UV 3 out of 12
Pollen 6.40 out of 12
Air Quality Not available.
Flu Activity Not available.
METAR KCNB 281814Z AUTO 35006KT 10SM SCT039 BKN050 OVC065 21/12 A3026 RMK AO2 T02140120

More Conditions Fewer Conditions

10-Day Weather Forecast

Almanac

Astronomy

Jul. 28, 2014 Rise Set
Actual Time 6:08 AM CDT 8:57 PM CDT
Civil Twilight 5:34 AM CDT 9:31 PM CDT
Nautical Twilight 4:51 AM CDT 10:14 PM CDT
Astronomical Twilight 4:00 AM CDT 11:04 PM CDT
Moon 7:57 AM CDT 9:31 PM CDT
Length of Visible Light 15h 57m
Length of Day
14h 49m
Tomorrow will be 2m 15s shorter.
Waxing Crescent, 3% of the Moon is Illuminated
Today
Waxing Crescent
Aug 3
First Quarter
Aug 10
Full
Aug 17
Last Quarter
Aug 25
New

Today's Extremes

State Highs State Lows

Community

WunderPhotos

Upload Photos

1,738,430 photos uploaded!

WunderBlogs® & News

Nearby

Snow Depth

Station Depth Elevation
Blind Park 0 in 6890 ft

Earthquake Activity

City Distance Mag. Time & Date
No recent earthquake activity has been reported nearby.
Minimum magnitude displayed is 2.5.

Coastal Water Temperatures

Place Temperature
No Stations Reporting

Nearby Weather Stations

Station Location Temp. Heat Index Dew Point Humidity Wind Precip. Elev Updated Type
East side of Watertown, SD, Watertown, SD 70.2 °F 77 °F 53 °F 54% NNE  at  9.9 mph - / hr 1732 ft 1:21 PM CDT Normal
Turkey Ridge, Watertown, SD 68.1 °F - 51 °F 54% NE  at  8.0 mph 0.00 in / hr 1795 ft 1:19 PM CDT Normal
South Lake Pelican, Watertown, SD 69.4 °F - 52 °F 53% NNW  at  2.0 mph 0.00 in / hr 1726 ft 1:28 PM CDT Rapid Fire

Show More Stations Show Fewer Stations